sensor_id;sensor_type;location;lat;lon;timestamp;P1;durP1;ratioP1;P2;durP2;ratioP2
54438;SDS011;40347;53.848;27.498;2022-10-19T00:03:39;4.3;;;1.9;;
54438;SDS011;40347;53.848;27.498;2022-10-19T00:08:53;6.5;;;2.6;;
54438;SDS011;40347;53.848;27.498;2022-10-19T00:13:49;5.3;;;2.2;;
54438;SDS011;40347;53.848;27.498;2022-10-19T00:18:39;5.1;;;2.1;;
54438;SDS011;40347;53.848;27.498;2022-10-19T00:23:52;6.4;;;2;;
54438;SDS011;40347;53.848;27.498;2022-10-19T00:28:50;6.7;;;2.2;;
54438;SDS011;40347;53.848;27.498;2022-10-19T00:33:55;5.4;;;2.1;;
54438;SDS011;40347;53.848;27.498;2022-10-19T00:38:40;5.4;;;2.1;;
54438;SDS011;40347;53.848;27.498;2022-10-19T00:43:55;6.3;;;2.3;;
54438;SDS011;40347;53.848;27.498;2022-10-19T00:48:54;5.1;;;2.2;;
54438;SDS011;40347;53.848;27.498;2022-10-19T00:53:45;7;;;2.4;;
54438;SDS011;40347;53.848;27.498;2022-10-19T00:58:49;8.5;;;2.6;;
54438;SDS011;40347;53.848;27.498;2022-10-19T01:03:39;8.2;;;2.4;;
54438;SDS011;40347;53.848;27.498;2022-10-19T01:08:39;7.2;;;2.4;;
54438;SDS011;40347;53.848;27.498;2022-10-19T01:13:41;8.8;;;2.6;;
54438;SDS011;40347;53.848;27.498;2022-10-19T01:18:43;6.2;;;2.4;;
54438;SDS011;40347;53.848;27.498;2022-10-19T01:23:55;7.5;;;2.3;;
54438;SDS011;40347;53.848;27.498;2022-10-19T01:28:58;7.7;;;2.2;;
54438;SDS011;40347;53.848;27.498;2022-10-19T01:34:00;7.9;;;2.5;;
54438;SDS011;40347;53.848;27.498;2022-10-19T01:38:52;8.3;;;2.5;;
54438;SDS011;40347;53.848;27.498;2022-10-19T01:43:46;10.4;;;2.4;;
54438;SDS011;40347;53.848;27.498;2022-10-19T01:48:40;8.1;;;2.3;;
54438;SDS011;40347;53.848;27.498;2022-10-19T01:53:40;6.9;;;2.2;;
54438;SDS011;40347;53.848;27.498;2022-10-19T01:58:39;7.8;;;2.1;;
54438;SDS011;40347;53.848;27.498;2022-10-19T02:03:39;7.5;;;2.5;;
54438;SDS011;40347;53.848;27.498;2022-10-19T02:08:40;7;;;2.3;;
54438;SDS011;40347;53.848;27.498;2022-10-19T02:13:39;9;;;2.4;;
54438;SDS011;40347;53.848;27.498;2022-10-19T02:18:51;9.9;;;2.5;;
54438;SDS011;40347;53.848;27.498;2022-10-19T02:23:39;8.5;;;2.3;;
54438;SDS011;40347;53.848;27.498;2022-10-19T02:28:47;10;;;2.5;;
54438;SDS011;40347;53.848;27.498;2022-10-19T02:33:45;7.9;;;2.2;;
54438;SDS011;40347;53.848;27.498;2022-10-19T02:38:53;6.9;;;2.1;;
54438;SDS011;40347;53.848;27.498;2022-10-19T02:43:44;8.4;;;2.3;;
54438;SDS011;40347;53.848;27.498;2022-10-19T02:48:39;8.2;;;2.6;;
54438;SDS011;40347;53.848;27.498;2022-10-19T02:53:39;10.2;;;2.6;;
54438;SDS011;40347;53.848;27.498;2022-10-19T02:58:43;7.7;;;2.4;;
54438;SDS011;40347;53.848;27.498;2022-10-19T03:03:39;8.5;;;2.4;;
54438;SDS011;40347;53.848;27.498;2022-10-19T03:08:51;12.1;;;2.6;;
54438;SDS011;40347;53.848;27.498;2022-10-19T03:13:40;10;;;2.5;;
54438;SDS011;40347;53.848;27.498;2022-10-19T03:18:47;10.9;;;2.7;;
54438;SDS011;40347;53.848;27.498;2022-10-19T03:23:51;9.4;;;2.6;;
54438;SDS011;40347;53.848;27.498;2022-10-19T03:28:39;11.3;;;2.8;;
54438;SDS011;40347;53.848;27.498;2022-10-19T03:33:39;8.7;;;2.6;;
54438;SDS011;40347;53.848;27.498;2022-10-19T03:38:45;8.7;;;2.6;;
54438;SDS011;40347;53.848;27.498;2022-10-19T03:43:39;8.5;;;2.5;;
54438;SDS011;40347;53.848;27.498;2022-10-19T03:48:43;8.3;;;2.5;;
54438;SDS011;40347;53.848;27.498;2022-10-19T03:53:50;9.6;;;2.7;;
54438;SDS011;40347;53.848;27.498;2022-10-19T03:58:40;9.6;;;2.6;;
54438;SDS011;40347;53.848;27.498;2022-10-19T04:03:51;10.4;;;2.5;;
54438;SDS011;40347;53.848;27.498;2022-10-19T04:08:59;9.2;;;2.8;;
54438;SDS011;40347;53.848;27.498;2022-10-19T04:13:47;9.1;;;3;;
54438;SDS011;40347;53.848;27.498;2022-10-19T04:18:39;7.4;;;2.7;;
54438;SDS011;40347;53.848;27.498;2022-10-19T04:24:10;5.7;;;2.4;;
54438;SDS011;40347;53.848;27.498;2022-10-19T04:28:49;8.4;;;2.6;;
54438;SDS011;40347;53.848;27.498;2022-10-19T04:33:49;11.5;;;2.5;;
54438;SDS011;40347;53.848;27.498;2022-10-19T04:38:53;8.3;;;2.5;;
54438;SDS011;40347;53.848;27.498;2022-10-19T04:43:39;8.7;;;2.4;;
54438;SDS011;40347;53.848;27.498;2022-10-19T04:48:39;7.3;;;2.4;;
54438;SDS011;40347;53.848;27.498;2022-10-19T04:53:40;7.2;;;2.4;;
54438;SDS011;40347;53.848;27.498;2022-10-19T04:58:59;8.1;;;2.5;;
54438;SDS011;40347;53.848;27.498;2022-10-19T05:03:39;10.1;;;2.8;;
54438;SDS011;40347;53.848;27.498;2022-10-19T05:08:39;8.8;;;2.4;;
54438;SDS011;40347;53.848;27.498;2022-10-19T05:13:45;5.9;;;2.3;;
54438;SDS011;40347;53.848;27.498;2022-10-19T05:18:50;6.5;;;2.3;;
54438;SDS011;40347;53.848;27.498;2022-10-19T05:23:50;6.3;;;2.1;;
54438;SDS011;40347;53.848;27.498;2022-10-19T05:28:39;5.4;;;2;;
54438;SDS011;40347;53.848;27.498;2022-10-19T05:34:03;6.9;;;2.1;;
54438;SDS011;40347;53.848;27.498;2022-10-19T05:38:49;6.3;;;2.1;;
54438;SDS011;40347;53.848;27.498;2022-10-19T05:43:51;7.3;;;2.5;;
54438;SDS011;40347;53.848;27.498;2022-10-19T05:49:01;6.3;;;2.2;;
54438;SDS011;40347;53.848;27.498;2022-10-19T05:53:39;6.3;;;2;;
54438;SDS011;40347;53.848;27.498;2022-10-19T05:58:48;6.4;;;1.9;;
54438;SDS011;40347;53.848;27.498;2022-10-19T06:03:52;5.3;;;1.9;;
54438;SDS011;40347;53.848;27.498;2022-10-19T06:08:49;5.6;;;2;;
54438;SDS011;40347;53.848;27.498;2022-10-19T06:13:50;7.1;;;2.6;;
54438;SDS011;40347;53.848;27.498;2022-10-19T06:18:39;8.6;;;2.9;;
54438;SDS011;40347;53.848;27.498;2022-10-19T06:23:39;6.6;;;2.3;;
54438;SDS011;40347;53.848;27.498;2022-10-19T06:28:53;5.6;;;2;;
54438;SDS011;40347;53.848;27.498;2022-10-19T06:33:47;6.4;;;1.9;;
54438;SDS011;40347;53.848;27.498;2022-10-19T06:38:43;7.7;;;1.9;;
54438;SDS011;40347;53.848;27.498;2022-10-19T06:44:01;7.2;;;2.1;;
54438;SDS011;40347;53.848;27.498;2022-10-19T06:48:39;5.7;;;1.9;;
54438;SDS011;40347;53.848;27.498;2022-10-19T06:53:47;5.3;;;1.8;;
54438;SDS011;40347;53.848;27.498;2022-10-19T06:58:39;5.5;;;1.9;;
54438;SDS011;40347;53.848;27.498;2022-10-19T07:03:49;5.3;;;1.8;;
54438;SDS011;40347;53.848;27.498;2022-10-19T07:08:40;5;;;1.9;;
54438;SDS011;40347;53.848;27.498;2022-10-19T07:13:39;3.5;;;1.4;;
54438;SDS011;40347;53.848;27.498;2022-10-19T07:18:53;4.4;;;1.7;;
54438;SDS011;40347;53.848;27.498;2022-10-19T07:23:40;4.2;;;1.6;;
54438;SDS011;40347;53.848;27.498;2022-10-19T07:28:40;4;;;1.6;;
54438;SDS011;40347;53.848;27.498;2022-10-19T07:33:39;4.5;;;1.5;;
54438;SDS011;40347;53.848;27.498;2022-10-19T07:38:39;4.3;;;1.5;;
54438;SDS011;40347;53.848;27.498;2022-10-19T07:43:39;5.6;;;1.7;;
54438;SDS011;40347;53.848;27.498;2022-10-19T07:49:04;5.8;;;1.7;;
54438;SDS011;40347;53.848;27.498;2022-10-19T07:54:05;4.2;;;1.4;;
54438;SDS011;40347;53.848;27.498;2022-10-19T07:58:39;2.5;;;1.2;;
54438;SDS011;40347;53.848;27.498;2022-10-19T08:03:45;2.4;;;1;;
54438;SDS011;40347;53.848;27.498;2022-10-19T08:08:39;1.6;;;0.8;;
54438;SDS011;40347;53.848;27.498;2022-10-19T08:13:59;1.6;;;0.9;;
54438;SDS011;40347;53.848;27.498;2022-10-19T08:18:39;2.3;;;1.1;;
54438;SDS011;40347;53.848;27.498;2022-10-19T08:23:45;3.2;;;1.3;;
54438;SDS011;40347;53.848;27.498;2022-10-19T08:28:51;2.4;;;0.9;;
54438;SDS011;40347;53.848;27.498;2022-10-19T08:33:45;2.6;;;1.1;;
54438;SDS011;40347;53.848;27.498;2022-10-19T08:38:49;4.3;;;1.3;;
54438;SDS011;40347;53.848;27.498;2022-10-19T08:43:41;2.1;;;0.8;;
54438;SDS011;40347;53.848;27.498;2022-10-19T08:48:39;1.4;;;0.7;;
54438;SDS011;40347;53.848;27.498;2022-10-19T08:53:49;1.5;;;0.8;;
54438;SDS011;40347;53.848;27.498;2022-10-19T08:58:44;2.5;;;1;;
54438;SDS011;40347;53.848;27.498;2022-10-19T09:03:40;1.4;;;0.7;;
54438;SDS011;40347;53.848;27.498;2022-10-19T09:08:45;1.3;;;0.6;;
54438;SDS011;40347;53.848;27.498;2022-10-19T09:13:40;1.4;;;0.8;;
54438;SDS011;40347;53.848;27.498;2022-10-19T09:18:57;1.9;;;1;;
54438;SDS011;40347;53.848;27.498;2022-10-19T09:23:40;1.5;;;0.8;;
54438;SDS011;40347;53.848;27.498;2022-10-19T09:28:58;1.6;;;0.8;;
54438;SDS011;40347;53.848;27.498;2022-10-19T09:33:39;1.8;;;0.8;;
54438;SDS011;40347;53.848;27.498;2022-10-19T09:38:39;1.9;;;0.9;;
54438;SDS011;40347;53.848;27.498;2022-10-19T09:44:07;2.1;;;1;;
54438;SDS011;40347;53.848;27.498;2022-10-19T09:48:40;2.7;;;0.9;;
54438;SDS011;40347;53.848;27.498;2022-10-19T09:53:42;1.8;;;1;;
54438;SDS011;40347;53.848;27.498;2022-10-19T09:58:39;2.7;;;1.3;;
54438;SDS011;40347;53.848;27.498;2022-10-19T10:04:05;4.1;;;1.3;;
54438;SDS011;40347;53.848;27.498;2022-10-19T10:08:46;2.2;;;0.9;;
54438;SDS011;40347;53.848;27.498;2022-10-19T10:13:47;1.7;;;0.8;;
54438;SDS011;40347;53.848;27.498;2022-10-19T10:18:50;1.5;;;0.8;;
54438;SDS011;40347;53.848;27.498;2022-10-19T10:24:01;2.9;;;0.7;;
54438;SDS011;40347;53.848;27.498;2022-10-19T10:28:45;1.9;;;0.8;;
54438;SDS011;40347;53.848;27.498;2022-10-19T10:33:51;2.7;;;0.9;;
54438;SDS011;40347;53.848;27.498;2022-10-19T10:38:48;1.9;;;1.1;;
54438;SDS011;40347;53.848;27.498;2022-10-19T10:43:47;2.2;;;0.9;;
54438;SDS011;40347;53.848;27.498;2022-10-19T10:48:50;1.1;;;0.7;;
54438;SDS011;40347;53.848;27.498;2022-10-19T10:53:40;1.2;;;0.7;;
54438;SDS011;40347;53.848;27.498;2022-10-19T10:58:40;1.3;;;0.7;;
54438;SDS011;40347;53.848;27.498;2022-10-19T11:03:57;0.9;;;0.5;;
54438;SDS011;40347;53.848;27.498;2022-10-19T11:08:59;1.8;;;0.6;;
54438;SDS011;40347;53.848;27.498;2022-10-19T11:13:50;0.9;;;0.5;;
54438;SDS011;40347;53.848;27.498;2022-10-19T11:18:59;0.8;;;0.5;;
54438;SDS011;40347;53.848;27.498;2022-10-19T11:23:55;2.8;;;0.5;;
54438;SDS011;40347;53.848;27.498;2022-10-19T11:28:57;1.2;;;0.4;;
54438;SDS011;40347;53.848;27.498;2022-10-19T11:33:48;1.4;;;0.7;;
54438;SDS011;40347;53.848;27.498;2022-10-19T11:38:48;1.1;;;0.5;;
54438;SDS011;40347;53.848;27.498;2022-10-19T11:43:41;1.5;;;0.7;;
54438;SDS011;40347;53.848;27.498;2022-10-19T11:48:43;1.7;;;0.9;;
54438;SDS011;40347;53.848;27.498;2022-10-19T11:54:03;3.2;;;0.8;;
54438;SDS011;40347;53.848;27.498;2022-10-19T11:58:49;1.9;;;0.6;;
54438;SDS011;40347;53.848;27.498;2022-10-19T12:03:44;1.5;;;0.7;;
54438;SDS011;40347;53.848;27.498;2022-10-19T12:08:45;2.1;;;0.8;;
54438;SDS011;40347;53.848;27.498;2022-10-19T12:13:40;2.2;;;0.8;;
54438;SDS011;40347;53.848;27.498;2022-10-19T12:18:54;1.7;;;0.9;;
54438;SDS011;40347;53.848;27.498;2022-10-19T12:23:45;1.2;;;0.7;;
54438;SDS011;40347;53.848;27.498;2022-10-19T12:28:40;1.1;;;0.7;;
54438;SDS011;40347;53.848;27.498;2022-10-19T12:33:41;1.7;;;0.9;;
54438;SDS011;40347;53.848;27.498;2022-10-19T12:38:41;2.3;;;0.6;;
54438;SDS011;40347;53.848;27.498;2022-10-19T12:43:40;2.4;;;0.7;;
54438;SDS011;40347;53.848;27.498;2022-10-19T12:48:43;2.5;;;1.2;;
54438;SDS011;40347;53.848;27.498;2022-10-19T12:54:05;2.9;;;1.1;;
54438;SDS011;40347;53.848;27.498;2022-10-19T12:58:51;2.7;;;1.3;;
54438;SDS011;40347;53.848;27.498;2022-10-19T13:03:40;2.5;;;1.2;;
54438;SDS011;40347;53.848;27.498;2022-10-19T13:08:41;3.7;;;1;;
54438;SDS011;40347;53.848;27.498;2022-10-19T13:13:52;2.6;;;0.9;;
54438;SDS011;40347;53.848;27.498;2022-10-19T13:19:00;1.6;;;1;;
54438;SDS011;40347;53.848;27.498;2022-10-19T13:23:39;2.3;;;1;;
54438;SDS011;40347;53.848;27.498;2022-10-19T13:28:47;3;;;1.1;;
54438;SDS011;40347;53.848;27.498;2022-10-19T13:33:43;1.9;;;0.9;;
54438;SDS011;40347;53.848;27.498;2022-10-19T13:38:40;1.8;;;1;;
54438;SDS011;40347;53.848;27.498;2022-10-19T13:43:53;1.5;;;0.9;;
54438;SDS011;40347;53.848;27.498;2022-10-19T13:49:10;2.6;;;0.8;;
54438;SDS011;40347;53.848;27.498;2022-10-19T13:53:39;1.8;;;0.7;;
54438;SDS011;40347;53.848;27.498;2022-10-19T13:59:25;1.9;;;0.8;;
54438;SDS011;40347;53.848;27.498;2022-10-19T14:03:43;2.9;;;1;;
54438;SDS011;40347;53.848;27.498;2022-10-19T14:09:14;1.6;;;0.9;;
54438;SDS011;40347;53.848;27.498;2022-10-19T14:13:51;3.4;;;1.1;;
54438;SDS011;40347;53.848;27.498;2022-10-19T14:18:40;1.2;;;0.8;;
54438;SDS011;40347;53.848;27.498;2022-10-19T14:23:58;2.3;;;0.9;;
54438;SDS011;40347;53.848;27.498;2022-10-19T14:28:40;2.6;;;0.9;;
54438;SDS011;40347;53.848;27.498;2022-10-19T14:34:08;1.3;;;0.9;;
54438;SDS011;40347;53.848;27.498;2022-10-19T14:38:40;2.4;;;0.8;;
54438;SDS011;40347;53.848;27.498;2022-10-19T14:43:39;2.5;;;1;;
54438;SDS011;40347;53.848;27.498;2022-10-19T14:48:40;2.6;;;1.2;;
54438;SDS011;40347;53.848;27.498;2022-10-19T14:53:40;2.3;;;1.1;;
54438;SDS011;40347;53.848;27.498;2022-10-19T14:59:01;2;;;1;;
54438;SDS011;40347;53.848;27.498;2022-10-19T15:03:59;2;;;1.2;;
54438;SDS011;40347;53.848;27.498;2022-10-19T15:08:40;2.5;;;1.2;;
54438;SDS011;40347;53.848;27.498;2022-10-19T15:13:40;2.8;;;1.1;;
54438;SDS011;40347;53.848;27.498;2022-10-19T15:18:39;1.9;;;0.9;;
54438;SDS011;40347;53.848;27.498;2022-10-19T15:24:06;4.9;;;1.2;;
54438;SDS011;40347;53.848;27.498;2022-10-19T15:28:48;2.1;;;1;;
54438;SDS011;40347;53.848;27.498;2022-10-19T15:33:49;1.8;;;1;;
54438;SDS011;40347;53.848;27.498;2022-10-19T15:38:46;2;;;0.9;;
54438;SDS011;40347;53.848;27.498;2022-10-19T15:43:50;1.9;;;0.9;;
54438;SDS011;40347;53.848;27.498;2022-10-19T15:48:48;1.8;;;0.9;;
54438;SDS011;40347;53.848;27.498;2022-10-19T15:53:40;2;;;1;;
54438;SDS011;40347;53.848;27.498;2022-10-19T15:59:09;2.3;;;1.1;;
54438;SDS011;40347;53.848;27.498;2022-10-19T16:03:49;2.7;;;1.1;;
54438;SDS011;40347;53.848;27.498;2022-10-19T16:08:56;2;;;0.9;;
54438;SDS011;40347;53.848;27.498;2022-10-19T16:13:40;1.8;;;0.9;;
54438;SDS011;40347;53.848;27.498;2022-10-19T16:18:39;4.1;;;0.9;;
54438;SDS011;40347;53.848;27.498;2022-10-19T16:23:53;2.8;;;0.9;;
54438;SDS011;40347;53.848;27.498;2022-10-19T16:28:54;3.7;;;1.5;;
54438;SDS011;40347;53.848;27.498;2022-10-19T16:33:45;2.9;;;1.4;;
54438;SDS011;40347;53.848;27.498;2022-10-19T16:38:39;3.8;;;1.2;;
54438;SDS011;40347;53.848;27.498;2022-10-19T16:43:39;2.4;;;1;;
54438;SDS011;40347;53.848;27.498;2022-10-19T16:49:15;2.2;;;1.2;;
54438;SDS011;40347;53.848;27.498;2022-10-19T16:53:56;2.9;;;1.1;;
54438;SDS011;40347;53.848;27.498;2022-10-19T16:58:43;2.4;;;1;;
54438;SDS011;40347;53.848;27.498;2022-10-19T17:03:52;2;;;0.9;;
54438;SDS011;40347;53.848;27.498;2022-10-19T17:08:39;2.5;;;0.9;;
54438;SDS011;40347;53.848;27.498;2022-10-19T17:13:40;2.6;;;1.2;;
54438;SDS011;40347;53.848;27.498;2022-10-19T17:18:58;2.1;;;1;;
54438;SDS011;40347;53.848;27.498;2022-10-19T17:23:49;1.8;;;0.8;;
54438;SDS011;40347;53.848;27.498;2022-10-19T17:28:39;1.9;;;0.9;;
54438;SDS011;40347;53.848;27.498;2022-10-19T17:33:57;3.7;;;1;;
54438;SDS011;40347;53.848;27.498;2022-10-19T17:39:01;2.2;;;0.9;;
54438;SDS011;40347;53.848;27.498;2022-10-19T17:43:54;2.8;;;0.9;;
54438;SDS011;40347;53.848;27.498;2022-10-19T17:48:46;3.1;;;1;;
54438;SDS011;40347;53.848;27.498;2022-10-19T17:53:40;1.5;;;0.8;;
54438;SDS011;40347;53.848;27.498;2022-10-19T17:58:56;1.9;;;0.9;;
54438;SDS011;40347;53.848;27.498;2022-10-19T18:03:57;2.1;;;0.9;;
54438;SDS011;40347;53.848;27.498;2022-10-19T18:08:46;2;;;0.8;;
54438;SDS011;40347;53.848;27.498;2022-10-19T18:13:40;1.7;;;0.9;;
54438;SDS011;40347;53.848;27.498;2022-10-19T18:18:47;1.9;;;1.1;;
54438;SDS011;40347;53.848;27.498;2022-10-19T18:23:47;2.8;;;1.3;;
54438;SDS011;40347;53.848;27.498;2022-10-19T18:28:46;1.6;;;0.8;;
54438;SDS011;40347;53.848;27.498;2022-10-19T18:33:39;1.8;;;0.9;;
54438;SDS011;40347;53.848;27.498;2022-10-19T18:38:40;2.4;;;0.9;;
54438;SDS011;40347;53.848;27.498;2022-10-19T18:43:59;1.8;;;0.9;;
54438;SDS011;40347;53.848;27.498;2022-10-19T18:48:50;2.1;;;0.9;;
54438;SDS011;40347;53.848;27.498;2022-10-19T18:53:49;1.9;;;1;;
54438;SDS011;40347;53.848;27.498;2022-10-19T18:58:54;2.7;;;1;;
54438;SDS011;40347;53.848;27.498;2022-10-19T19:03:52;2.1;;;0.9;;
54438;SDS011;40347;53.848;27.498;2022-10-19T19:08:40;2;;;0.8;;
54438;SDS011;40347;53.848;27.498;2022-10-19T19:13:48;2.9;;;0.9;;
54438;SDS011;40347;53.848;27.498;2022-10-19T19:18:39;1.8;;;0.9;;
54438;SDS011;40347;53.848;27.498;2022-10-19T19:23:40;2.8;;;1;;
54438;SDS011;40347;53.848;27.498;2022-10-19T19:28:49;2.4;;;1.1;;
54438;SDS011;40347;53.848;27.498;2022-10-19T19:33:40;2.6;;;1.1;;
54438;SDS011;40347;53.848;27.498;2022-10-19T19:38:50;2.8;;;1.1;;
54438;SDS011;40347;53.848;27.498;2022-10-19T19:43:54;2.6;;;1;;
54438;SDS011;40347;53.848;27.498;2022-10-19T19:48:40;2.7;;;1.2;;
54438;SDS011;40347;53.848;27.498;2022-10-19T19:53:55;3.8;;;1.5;;
54438;SDS011;40347;53.848;27.498;2022-10-19T19:58:40;4.5;;;1.6;;
54438;SDS011;40347;53.848;27.498;2022-10-19T20:03:40;3.5;;;1.5;;
54438;SDS011;40347;53.848;27.498;2022-10-19T20:08:49;2.6;;;1.4;;
54438;SDS011;40347;53.848;27.498;2022-10-19T20:13:40;2.7;;;1.3;;
54438;SDS011;40347;53.848;27.498;2022-10-19T20:18:40;2.4;;;1.1;;
54438;SDS011;40347;53.848;27.498;2022-10-19T20:23:42;2.4;;;1.1;;
54438;SDS011;40347;53.848;27.498;2022-10-19T20:28:40;2.6;;;1.1;;
54438;SDS011;40347;53.848;27.498;2022-10-19T20:33:49;2.3;;;0.9;;
54438;SDS011;40347;53.848;27.498;2022-10-19T20:38:43;2.3;;;0.8;;
54438;SDS011;40347;53.848;27.498;2022-10-19T20:43:56;2.5;;;0.9;;
54438;SDS011;40347;53.848;27.498;2022-10-19T20:48:48;3;;;1;;
54438;SDS011;40347;53.848;27.498;2022-10-19T20:53:55;1.6;;;1;;
54438;SDS011;40347;53.848;27.498;2022-10-19T20:58:40;2.2;;;0.9;;
54438;SDS011;40347;53.848;27.498;2022-10-19T21:03:48;1.9;;;0.9;;
54438;SDS011;40347;53.848;27.498;2022-10-19T21:08:40;1.9;;;0.9;;
54438;SDS011;40347;53.848;27.498;2022-10-19T21:13:39;1.6;;;1;;
54438;SDS011;40347;53.848;27.498;2022-10-19T21:18:58;1.6;;;0.8;;
54438;SDS011;40347;53.848;27.498;2022-10-19T21:23:40;1.8;;;0.8;;
54438;SDS011;40347;53.848;27.498;2022-10-19T21:28:54;2.8;;;1;;
54438;SDS011;40347;53.848;27.498;2022-10-19T21:33:46;2.1;;;0.9;;
54438;SDS011;40347;53.848;27.498;2022-10-19T21:38:47;1.9;;;0.9;;
54438;SDS011;40347;53.848;27.498;2022-10-19T21:43:48;2.5;;;0.8;;
54438;SDS011;40347;53.848;27.498;2022-10-19T21:48:40;3.1;;;0.9;;
54438;SDS011;40347;53.848;27.498;2022-10-19T21:53:40;3.3;;;0.9;;
54438;SDS011;40347;53.848;27.498;2022-10-19T21:59:00;2.3;;;0.9;;
54438;SDS011;40347;53.848;27.498;2022-10-19T22:03:40;2.5;;;0.9;;
54438;SDS011;40347;53.848;27.498;2022-10-19T22:23:40;1.3;;;0.7;;
54438;SDS011;40347;53.848;27.498;2022-10-19T22:28:40;1;;;0.8;;
54438;SDS011;40347;53.848;27.498;2022-10-19T22:33:48;1.5;;;0.7;;
54438;SDS011;40347;53.848;27.498;2022-10-19T22:38:40;1.8;;;0.8;;
54438;SDS011;40347;53.848;27.498;2022-10-19T22:43:40;1.6;;;0.8;;
54438;SDS011;40347;53.848;27.498;2022-10-19T22:48:46;2.1;;;0.9;;
54438;SDS011;40347;53.848;27.498;2022-10-19T22:53:46;1.5;;;0.8;;
54438;SDS011;40347;53.848;27.498;2022-10-19T22:58:48;1.7;;;0.9;;
54438;SDS011;40347;53.848;27.498;2022-10-19T23:03:46;2.5;;;0.9;;
54438;SDS011;40347;53.848;27.498;2022-10-19T23:08:40;1.2;;;0.8;;
54438;SDS011;40347;53.848;27.498;2022-10-19T23:13:40;1.4;;;0.9;;
54438;SDS011;40347;53.848;27.498;2022-10-19T23:18:40;2.4;;;1;;
54438;SDS011;40347;53.848;27.498;2022-10-19T23:23:40;2.2;;;1.1;;
54438;SDS011;40347;53.848;27.498;2022-10-19T23:28:56;2;;;1.2;;
54438;SDS011;40347;53.848;27.498;2022-10-19T23:33:44;2.1;;;0.9;;
54438;SDS011;40347;53.848;27.498;2022-10-19T23:38:44;2.3;;;1;;
54438;SDS011;40347;53.848;27.498;2022-10-19T23:43:40;2;;;1;;
54438;SDS011;40347;53.848;27.498;2022-10-19T23:48:50;1.3;;;0.9;;
54438;SDS011;40347;53.848;27.498;2022-10-19T23:53:50;1.3;;;0.8;;
54438;SDS011;40347;53.848;27.498;2022-10-19T23:58:40;1.1;;;0.6;;
